sensor_id;sensor_type;location;lat;lon;timestamp;P1;durP1;ratioP1;P2;durP2;ratioP2
817;SDS011;391;51.052;6.954;2023-06-22T00:01:45;4.20;;;3.90;;
817;SDS011;391;51.052;6.954;2023-06-22T00:03:48;4.53;;;4.13;;
817;SDS011;391;51.052;6.954;2023-06-22T00:05:52;4.53;;;4.23;;
817;SDS011;391;51.052;6.954;2023-06-22T00:07:57;4.77;;;4.10;;
817;SDS011;391;51.052;6.954;2023-06-22T00:10:05;6.03;;;5.13;;
817;SDS011;391;51.052;6.954;2023-06-22T00:12:09;5.50;;;5.00;;
817;SDS011;391;51.052;6.954;2023-06-22T00:14:13;5.00;;;4.43;;
817;SDS011;391;51.052;6.954;2023-06-22T00:16:16;5.77;;;5.27;;
817;SDS011;391;51.052;6.954;2023-06-22T00:18:20;5.67;;;5.17;;
817;SDS011;391;51.052;6.954;2023-06-22T00:20:23;4.70;;;4.30;;
817;SDS011;391;51.052;6.954;2023-06-22T00:22:30;5.73;;;5.27;;
817;SDS011;391;51.052;6.954;2023-06-22T00:24:34;4.93;;;4.43;;
817;SDS011;391;51.052;6.954;2023-06-22T00:26:38;5.13;;;4.73;;
817;SDS011;391;51.052;6.954;2023-06-22T00:28:44;4.50;;;4.10;;
817;SDS011;391;51.052;6.954;2023-06-22T00:30:48;5.40;;;4.80;;
817;SDS011;391;51.052;6.954;2023-06-22T00:32:53;5.27;;;4.80;;
817;SDS011;391;51.052;6.954;2023-06-22T00:34:56;4.97;;;4.47;;
817;SDS011;391;51.052;6.954;2023-06-22T00:36:59;5.13;;;4.73;;
817;SDS011;391;51.052;6.954;2023-06-22T00:39:03;5.10;;;4.70;;
817;SDS011;391;51.052;6.954;2023-06-22T00:41:09;4.77;;;4.33;;
817;SDS011;391;51.052;6.954;2023-06-22T00:43:12;4.97;;;4.47;;
817;SDS011;391;51.052;6.954;2023-06-22T00:45:16;5.67;;;5.17;;
817;SDS011;391;51.052;6.954;2023-06-22T00:47:19;4.97;;;4.33;;
817;SDS011;391;51.052;6.954;2023-06-22T00:49:23;5.00;;;4.60;;
817;SDS011;391;51.052;6.954;2023-06-22T00:51:26;4.87;;;4.47;;
817;SDS011;391;51.052;6.954;2023-06-22T00:53:30;5.20;;;4.80;;
817;SDS011;391;51.052;6.954;2023-06-22T00:55:37;4.90;;;4.50;;
817;SDS011;391;51.052;6.954;2023-06-22T00:57:46;4.93;;;4.43;;
817;SDS011;391;51.052;6.954;2023-06-22T00:59:50;5.60;;;5.10;;
817;SDS011;391;51.052;6.954;2023-06-22T01:01:54;5.83;;;5.33;;
817;SDS011;391;51.052;6.954;2023-06-22T01:04:00;4.53;;;4.23;;
817;SDS011;391;51.052;6.954;2023-06-22T01:06:06;5.87;;;5.37;;
817;SDS011;391;51.052;6.954;2023-06-22T01:08:16;5.00;;;4.60;;
817;SDS011;391;51.052;6.954;2023-06-22T01:10:33;5.63;;;5.13;;
817;SDS011;391;51.052;6.954;2023-06-22T01:12:45;5.07;;;4.67;;
817;SDS011;391;51.052;6.954;2023-06-22T01:14:55;5.00;;;4.50;;
817;SDS011;391;51.052;6.954;2023-06-22T01:17:03;5.07;;;4.67;;
817;SDS011;391;51.052;6.954;2023-06-22T01:19:15;5.07;;;4.57;;
817;SDS011;391;51.052;6.954;2023-06-22T01:21:31;4.47;;;4.00;;
817;SDS011;391;51.052;6.954;2023-06-22T01:23:39;4.90;;;4.37;;
817;SDS011;391;51.052;6.954;2023-06-22T01:25:57;4.93;;;4.53;;
817;SDS011;391;51.052;6.954;2023-06-22T01:28:12;4.87;;;4.37;;
817;SDS011;391;51.052;6.954;2023-06-22T01:30:27;5.50;;;4.53;;
817;SDS011;391;51.052;6.954;2023-06-22T01:32:34;4.50;;;4.20;;
817;SDS011;391;51.052;6.954;2023-06-22T01:34:39;5.60;;;5.10;;
817;SDS011;391;51.052;6.954;2023-06-22T01:36:44;6.00;;;4.77;;
817;SDS011;391;51.052;6.954;2023-06-22T01:38:48;4.37;;;4.07;;
817;SDS011;391;51.052;6.954;2023-06-22T01:40:53;5.30;;;4.13;;
817;SDS011;391;51.052;6.954;2023-06-22T01:42:58;5.30;;;4.87;;
817;SDS011;391;51.052;6.954;2023-06-22T01:45:03;4.80;;;4.37;;
817;SDS011;391;51.052;6.954;2023-06-22T01:47:09;3.93;;;3.60;;
817;SDS011;391;51.052;6.954;2023-06-22T01:49:18;6.53;;;4.30;;
817;SDS011;391;51.052;6.954;2023-06-22T01:51:21;5.00;;;4.60;;
817;SDS011;391;51.052;6.954;2023-06-22T01:53:25;4.83;;;4.10;;
817;SDS011;391;51.052;6.954;2023-06-22T01:55:28;5.20;;;4.67;;
817;SDS011;391;51.052;6.954;2023-06-22T01:57:32;4.97;;;4.47;;
817;SDS011;391;51.052;6.954;2023-06-22T01:59:37;5.30;;;4.53;;
817;SDS011;391;51.052;6.954;2023-06-22T02:01:48;4.27;;;3.93;;
817;SDS011;391;51.052;6.954;2023-06-22T02:04:00;4.63;;;4.23;;
817;SDS011;391;51.052;6.954;2023-06-22T02:06:16;4.60;;;4.20;;
817;SDS011;391;51.052;6.954;2023-06-22T02:08:24;7.97;;;5.47;;
817;SDS011;391;51.052;6.954;2023-06-22T02:10:29;4.37;;;4.07;;
817;SDS011;391;51.052;6.954;2023-06-22T02:12:35;4.93;;;4.53;;
817;SDS011;391;51.052;6.954;2023-06-22T02:14:39;5.40;;;5.00;;
817;SDS011;391;51.052;6.954;2023-06-22T02:16:44;4.60;;;4.20;;
817;SDS011;391;51.052;6.954;2023-06-22T02:18:49;6.70;;;4.77;;
817;SDS011;391;51.052;6.954;2023-06-22T02:20:55;5.17;;;4.67;;
817;SDS011;391;51.052;6.954;2023-06-22T02:22:59;4.23;;;3.93;;
817;SDS011;391;51.052;6.954;2023-06-22T02:25:02;5.33;;;4.83;;
817;SDS011;391;51.052;6.954;2023-06-22T02:27:06;4.40;;;4.00;;
817;SDS011;391;51.052;6.954;2023-06-22T02:29:10;4.67;;;4.20;;
817;SDS011;391;51.052;6.954;2023-06-22T02:31:13;4.60;;;4.20;;
817;SDS011;391;51.052;6.954;2023-06-22T02:33:18;5.90;;;3.60;;
817;SDS011;391;51.052;6.954;2023-06-22T02:35:21;4.90;;;4.50;;
817;SDS011;391;51.052;6.954;2023-06-22T02:37:27;12.83;;;4.37;;
817;SDS011;391;51.052;6.954;2023-06-22T02:39:31;4.30;;;3.90;;
817;SDS011;391;51.052;6.954;2023-06-22T02:41:35;4.43;;;3.90;;
817;SDS011;391;51.052;6.954;2023-06-22T02:43:38;4.73;;;4.30;;
817;SDS011;391;51.052;6.954;2023-06-22T02:45:42;4.23;;;3.83;;
817;SDS011;391;51.052;6.954;2023-06-22T02:47:46;5.73;;;4.37;;
817;SDS011;391;51.052;6.954;2023-06-22T02:49:52;4.67;;;4.03;;
817;SDS011;391;51.052;6.954;2023-06-22T02:51:57;4.63;;;4.30;;
817;SDS011;391;51.052;6.954;2023-06-22T02:54:03;4.90;;;4.43;;
817;SDS011;391;51.052;6.954;2023-06-22T02:56:06;5.00;;;4.60;;
817;SDS011;391;51.052;6.954;2023-06-22T02:58:12;5.23;;;4.63;;
817;SDS011;391;51.052;6.954;2023-06-22T03:00:15;7.50;;;5.30;;
817;SDS011;391;51.052;6.954;2023-06-22T03:02:21;5.27;;;4.77;;
817;SDS011;391;51.052;6.954;2023-06-22T03:04:25;4.47;;;4.17;;
817;SDS011;391;51.052;6.954;2023-06-22T03:06:28;4.83;;;4.43;;
817;SDS011;391;51.052;6.954;2023-06-22T03:08:32;5.23;;;4.80;;
817;SDS011;391;51.052;6.954;2023-06-22T03:10:37;5.57;;;5.17;;
817;SDS011;391;51.052;6.954;2023-06-22T03:12:41;6.00;;;5.50;;
817;SDS011;391;51.052;6.954;2023-06-22T03:14:45;5.43;;;4.93;;
817;SDS011;391;51.052;6.954;2023-06-22T03:16:50;6.10;;;4.70;;
817;SDS011;391;51.052;6.954;2023-06-22T03:18:53;5.03;;;4.63;;
817;SDS011;391;51.052;6.954;2023-06-22T03:20:57;4.73;;;4.33;;
817;SDS011;391;51.052;6.954;2023-06-22T03:23:00;5.40;;;5.00;;
817;SDS011;391;51.052;6.954;2023-06-22T03:25:04;5.30;;;4.80;;
817;SDS011;391;51.052;6.954;2023-06-22T03:27:15;4.07;;;3.77;;
817;SDS011;391;51.052;6.954;2023-06-22T03:29:18;6.07;;;4.93;;
817;SDS011;391;51.052;6.954;2023-06-22T03:31:22;4.93;;;4.53;;
817;SDS011;391;51.052;6.954;2023-06-22T03:33:27;4.97;;;4.47;;
817;SDS011;391;51.052;6.954;2023-06-22T03:35:33;5.00;;;4.60;;
817;SDS011;391;51.052;6.954;2023-06-22T03:37:36;5.83;;;5.33;;
817;SDS011;391;51.052;6.954;2023-06-22T03:39:40;6.03;;;5.57;;
817;SDS011;391;51.052;6.954;2023-06-22T03:41:44;5.27;;;4.87;;
817;SDS011;391;51.052;6.954;2023-06-22T03:43:48;4.70;;;4.30;;
817;SDS011;391;51.052;6.954;2023-06-22T03:45:52;5.77;;;5.27;;
817;SDS011;391;51.052;6.954;2023-06-22T03:47:56;4.90;;;4.60;;
817;SDS011;391;51.052;6.954;2023-06-22T03:50:00;5.00;;;4.60;;
817;SDS011;391;51.052;6.954;2023-06-22T03:52:05;5.77;;;5.27;;
817;SDS011;391;51.052;6.954;2023-06-22T03:54:09;4.73;;;4.40;;
817;SDS011;391;51.052;6.954;2023-06-22T03:56:13;4.63;;;4.30;;
817;SDS011;391;51.052;6.954;2023-06-22T03:58:22;5.40;;;4.60;;
817;SDS011;391;51.052;6.954;2023-06-22T04:00:26;4.70;;;4.30;;
817;SDS011;391;51.052;6.954;2023-06-22T04:02:30;4.33;;;4.03;;
817;SDS011;391;51.052;6.954;2023-06-22T04:04:34;7.63;;;4.77;;
817;SDS011;391;51.052;6.954;2023-06-22T04:06:37;5.57;;;4.50;;
817;SDS011;391;51.052;6.954;2023-06-22T04:08:41;7.50;;;5.07;;
817;SDS011;391;51.052;6.954;2023-06-22T04:10:44;5.10;;;4.70;;
817;SDS011;391;51.052;6.954;2023-06-22T04:12:47;3.90;;;3.53;;
817;SDS011;391;51.052;6.954;2023-06-22T04:14:56;5.27;;;4.77;;
817;SDS011;391;51.052;6.954;2023-06-22T04:17:07;3.97;;;3.63;;
817;SDS011;391;51.052;6.954;2023-06-22T04:19:15;5.03;;;4.63;;
817;SDS011;391;51.052;6.954;2023-06-22T04:21:20;4.37;;;4.07;;
817;SDS011;391;51.052;6.954;2023-06-22T04:23:23;6.23;;;4.00;;
817;SDS011;391;51.052;6.954;2023-06-22T04:25:27;4.20;;;3.90;;
817;SDS011;391;51.052;6.954;2023-06-22T04:27:30;4.47;;;4.10;;
817;SDS011;391;51.052;6.954;2023-06-22T04:29:34;4.30;;;3.90;;
817;SDS011;391;51.052;6.954;2023-06-22T04:31:37;4.97;;;4.57;;
817;SDS011;391;51.052;6.954;2023-06-22T04:33:43;4.37;;;4.07;;
817;SDS011;391;51.052;6.954;2023-06-22T04:35:46;4.50;;;4.10;;
817;SDS011;391;51.052;6.954;2023-06-22T04:37:50;5.90;;;5.40;;
817;SDS011;391;51.052;6.954;2023-06-22T04:39:56;5.80;;;5.27;;
817;SDS011;391;51.052;6.954;2023-06-22T04:42:00;4.93;;;4.17;;
817;SDS011;391;51.052;6.954;2023-06-22T04:44:03;4.77;;;4.47;;
817;SDS011;391;51.052;6.954;2023-06-22T04:46:07;4.83;;;4.43;;
817;SDS011;391;51.052;6.954;2023-06-22T04:48:10;6.10;;;4.80;;
817;SDS011;391;51.052;6.954;2023-06-22T04:50:19;5.10;;;4.70;;
817;SDS011;391;51.052;6.954;2023-06-22T04:52:23;4.93;;;4.43;;
817;SDS011;391;51.052;6.954;2023-06-22T04:54:27;5.87;;;5.27;;
817;SDS011;391;51.052;6.954;2023-06-22T04:56:31;5.97;;;5.10;;
817;SDS011;391;51.052;6.954;2023-06-22T04:58:34;5.47;;;4.97;;
817;SDS011;391;51.052;6.954;2023-06-22T05:00:37;4.90;;;4.53;;
817;SDS011;391;51.052;6.954;2023-06-22T05:02:42;6.20;;;5.00;;
817;SDS011;391;51.052;6.954;2023-06-22T05:04:46;5.23;;;4.83;;
817;SDS011;391;51.052;6.954;2023-06-22T05:06:55;5.70;;;5.10;;
817;SDS011;391;51.052;6.954;2023-06-22T05:08:58;4.60;;;4.20;;
817;SDS011;391;51.052;6.954;2023-06-22T05:11:01;5.90;;;5.30;;
817;SDS011;391;51.052;6.954;2023-06-22T05:13:07;5.43;;;4.93;;
817;SDS011;391;51.052;6.954;2023-06-22T05:15:10;6.33;;;5.00;;
817;SDS011;391;51.052;6.954;2023-06-22T05:17:14;7.50;;;4.97;;
817;SDS011;391;51.052;6.954;2023-06-22T05:19:21;5.70;;;5.23;;
817;SDS011;391;51.052;6.954;2023-06-22T05:21:26;6.77;;;5.33;;
817;SDS011;391;51.052;6.954;2023-06-22T05:23:31;7.33;;;5.53;;
817;SDS011;391;51.052;6.954;2023-06-22T05:25:34;6.43;;;5.30;;
817;SDS011;391;51.052;6.954;2023-06-22T05:27:38;5.47;;;5.03;;
817;SDS011;391;51.052;6.954;2023-06-22T05:29:42;5.60;;;5.00;;
817;SDS011;391;51.052;6.954;2023-06-22T05:31:45;6.10;;;5.60;;
817;SDS011;391;51.052;6.954;2023-06-22T05:33:50;5.67;;;5.00;;
817;SDS011;391;51.052;6.954;2023-06-22T05:35:54;7.23;;;5.97;;
817;SDS011;391;51.052;6.954;2023-06-22T05:37:58;6.97;;;5.63;;
817;SDS011;391;51.052;6.954;2023-06-22T05:40:03;6.53;;;5.17;;
817;SDS011;391;51.052;6.954;2023-06-22T05:42:09;5.07;;;4.60;;
817;SDS011;391;51.052;6.954;2023-06-22T05:44:12;5.70;;;5.07;;
817;SDS011;391;51.052;6.954;2023-06-22T05:46:16;6.20;;;5.00;;
817;SDS011;391;51.052;6.954;2023-06-22T05:48:20;4.70;;;4.23;;
817;SDS011;391;51.052;6.954;2023-06-22T05:50:23;5.27;;;4.77;;
817;SDS011;391;51.052;6.954;2023-06-22T05:52:27;5.10;;;4.70;;
817;SDS011;391;51.052;6.954;2023-06-22T05:54:30;5.93;;;5.33;;
817;SDS011;391;51.052;6.954;2023-06-22T05:56:35;7.50;;;6.20;;
817;SDS011;391;51.052;6.954;2023-06-22T05:58:38;6.97;;;6.20;;
817;SDS011;391;51.052;6.954;2023-06-22T06:00:42;9.43;;;7.80;;
817;SDS011;391;51.052;6.954;2023-06-22T06:02:46;9.57;;;8.33;;
817;SDS011;391;51.052;6.954;2023-06-22T06:04:51;9.90;;;8.77;;
817;SDS011;391;51.052;6.954;2023-06-22T06:06:56;10.10;;;8.67;;
817;SDS011;391;51.052;6.954;2023-06-22T06:09:00;9.47;;;8.40;;
817;SDS011;391;51.052;6.954;2023-06-22T06:11:03;9.73;;;8.83;;
817;SDS011;391;51.052;6.954;2023-06-22T06:13:08;11.70;;;8.30;;
817;SDS011;391;51.052;6.954;2023-06-22T06:15:12;10.20;;;7.80;;
817;SDS011;391;51.052;6.954;2023-06-22T06:17:15;10.53;;;9.07;;
817;SDS011;391;51.052;6.954;2023-06-22T06:19:19;11.50;;;9.77;;
817;SDS011;391;51.052;6.954;2023-06-22T06:21:22;9.03;;;8.23;;
817;SDS011;391;51.052;6.954;2023-06-22T06:23:26;11.73;;;9.27;;
817;SDS011;391;51.052;6.954;2023-06-22T06:25:29;11.90;;;10.80;;
817;SDS011;391;51.052;6.954;2023-06-22T06:27:33;11.33;;;10.23;;
817;SDS011;391;51.052;6.954;2023-06-22T06:29:37;10.03;;;9.20;;
817;SDS011;391;51.052;6.954;2023-06-22T06:31:41;12.07;;;11.00;;
817;SDS011;391;51.052;6.954;2023-06-22T06:33:45;12.20;;;11.03;;
817;SDS011;391;51.052;6.954;2023-06-22T06:35:48;12.10;;;10.90;;
817;SDS011;391;51.052;6.954;2023-06-22T06:37:52;13.33;;;12.13;;
817;SDS011;391;51.052;6.954;2023-06-22T06:39:55;14.43;;;13.17;;
817;SDS011;391;51.052;6.954;2023-06-22T06:41:59;13.20;;;11.97;;
817;SDS011;391;51.052;6.954;2023-06-22T06:44:02;13.90;;;12.83;;
817;SDS011;391;51.052;6.954;2023-06-22T06:46:07;12.97;;;12.03;;
817;SDS011;391;51.052;6.954;2023-06-22T06:48:11;15.30;;;13.90;;
817;SDS011;391;51.052;6.954;2023-06-22T06:50:15;13.63;;;12.53;;
817;SDS011;391;51.052;6.954;2023-06-22T06:52:19;13.37;;;12.27;;
817;SDS011;391;51.052;6.954;2023-06-22T06:54:22;14.63;;;13.23;;
817;SDS011;391;51.052;6.954;2023-06-22T06:56:26;13.87;;;12.77;;
817;SDS011;391;51.052;6.954;2023-06-22T06:58:29;17.17;;;15.37;;
817;SDS011;391;51.052;6.954;2023-06-22T07:00:33;16.07;;;14.67;;
817;SDS011;391;51.052;6.954;2023-06-22T07:02:39;15.43;;;14.20;;
817;SDS011;391;51.052;6.954;2023-06-22T07:04:44;16.57;;;15.20;;
817;SDS011;391;51.052;6.954;2023-06-22T07:06:47;16.17;;;14.77;;
817;SDS011;391;51.052;6.954;2023-06-22T07:08:50;15.80;;;14.57;;
817;SDS011;391;51.052;6.954;2023-06-22T07:10:55;13.97;;;12.53;;
817;SDS011;391;51.052;6.954;2023-06-22T07:12:59;15.30;;;13.77;;
817;SDS011;391;51.052;6.954;2023-06-22T07:15:03;17.63;;;16.13;;
817;SDS011;391;51.052;6.954;2023-06-22T07:17:10;15.73;;;14.53;;
817;SDS011;391;51.052;6.954;2023-06-22T07:19:14;17.47;;;15.97;;
817;SDS011;391;51.052;6.954;2023-06-22T07:21:18;16.50;;;15.20;;
817;SDS011;391;51.052;6.954;2023-06-22T07:23:21;17.10;;;15.60;;
817;SDS011;391;51.052;6.954;2023-06-22T07:25:25;17.17;;;15.80;;
817;SDS011;391;51.052;6.954;2023-06-22T07:27:28;19.60;;;17.80;;
817;SDS011;391;51.052;6.954;2023-06-22T07:29:39;16.83;;;15.43;;
817;SDS011;391;51.052;6.954;2023-06-22T07:31:44;17.27;;;15.97;;
817;SDS011;391;51.052;6.954;2023-06-22T07:33:48;15.60;;;14.40;;
817;SDS011;391;51.052;6.954;2023-06-22T07:35:52;15.83;;;14.30;;
817;SDS011;391;51.052;6.954;2023-06-22T07:37:56;17.53;;;16.13;;
817;SDS011;391;51.052;6.954;2023-06-22T07:39:59;20.17;;;18.43;;
817;SDS011;391;51.052;6.954;2023-06-22T07:42:06;16.90;;;15.50;;
817;SDS011;391;51.052;6.954;2023-06-22T07:44:11;15.80;;;14.60;;
817;SDS011;391;51.052;6.954;2023-06-22T07:46:14;21.53;;;18.83;;
817;SDS011;391;51.052;6.954;2023-06-22T07:48:19;16.30;;;15.00;;
817;SDS011;391;51.052;6.954;2023-06-22T07:50:23;16.97;;;15.67;;
817;SDS011;391;51.052;6.954;2023-06-22T07:52:28;15.90;;;14.60;;
817;SDS011;391;51.052;6.954;2023-06-22T07:54:32;14.20;;;13.10;;
817;SDS011;391;51.052;6.954;2023-06-22T07:56:36;11.93;;;11.07;;
817;SDS011;391;51.052;6.954;2023-06-22T07:58:39;11.40;;;10.50;;
817;SDS011;391;51.052;6.954;2023-06-22T08:00:43;11.37;;;10.50;;
817;SDS011;391;51.052;6.954;2023-06-22T08:02:46;11.70;;;10.80;;
817;SDS011;391;51.052;6.954;2023-06-22T08:04:50;10.87;;;10.07;;
817;SDS011;391;51.052;6.954;2023-06-22T08:06:59;11.73;;;10.83;;
817;SDS011;391;51.052;6.954;2023-06-22T08:09:04;11.03;;;10.23;;
817;SDS011;391;51.052;6.954;2023-06-22T08:11:07;10.60;;;9.80;;
817;SDS011;391;51.052;6.954;2023-06-22T08:13:11;11.40;;;10.53;;
817;SDS011;391;51.052;6.954;2023-06-22T08:15:14;14.03;;;10.00;;
817;SDS011;391;51.052;6.954;2023-06-22T08:17:18;10.37;;;9.57;;
817;SDS011;391;51.052;6.954;2023-06-22T08:19:21;14.07;;;12.90;;
817;SDS011;391;51.052;6.954;2023-06-22T08:21:25;11.50;;;10.30;;
817;SDS011;391;51.052;6.954;2023-06-22T08:23:28;9.00;;;8.20;;
817;SDS011;391;51.052;6.954;2023-06-22T08:25:33;9.07;;;8.37;;
817;SDS011;391;51.052;6.954;2023-06-22T08:27:36;9.20;;;8.47;;
817;SDS011;391;51.052;6.954;2023-06-22T08:29:40;8.27;;;7.70;;
817;SDS011;391;51.052;6.954;2023-06-22T08:31:44;8.67;;;8.00;;
817;SDS011;391;51.052;6.954;2023-06-22T08:33:47;7.37;;;6.77;;
817;SDS011;391;51.052;6.954;2023-06-22T08:35:51;8.93;;;7.40;;
817;SDS011;391;51.052;6.954;2023-06-22T08:37:54;7.90;;;7.20;;
817;SDS011;391;51.052;6.954;2023-06-22T08:39:59;7.83;;;7.23;;
817;SDS011;391;51.052;6.954;2023-06-22T08:42:05;9.53;;;8.73;;
817;SDS011;391;51.052;6.954;2023-06-22T08:44:09;7.90;;;7.30;;
817;SDS011;391;51.052;6.954;2023-06-22T08:46:12;8.70;;;8.03;;
817;SDS011;391;51.052;6.954;2023-06-22T08:48:16;7.13;;;6.63;;
817;SDS011;391;51.052;6.954;2023-06-22T08:50:19;9.50;;;8.70;;
817;SDS011;391;51.052;6.954;2023-06-22T08:52:23;7.60;;;6.90;;
817;SDS011;391;51.052;6.954;2023-06-22T08:54:27;8.10;;;7.43;;
817;SDS011;391;51.052;6.954;2023-06-22T08:56:31;8.97;;;8.37;;
817;SDS011;391;51.052;6.954;2023-06-22T08:58:35;7.97;;;7.37;;
817;SDS011;391;51.052;6.954;2023-06-22T09:00:39;8.73;;;8.13;;
817;SDS011;391;51.052;6.954;2023-06-22T09:02:42;8.47;;;7.70;;
817;SDS011;391;51.052;6.954;2023-06-22T09:04:46;9.23;;;8.50;;
817;SDS011;391;51.052;6.954;2023-06-22T09:06:51;11.20;;;10.40;;
817;SDS011;391;51.052;6.954;2023-06-22T09:08:54;9.27;;;8.57;;
817;SDS011;391;51.052;6.954;2023-06-22T09:10:57;10.97;;;10.17;;
817;SDS011;391;51.052;6.954;2023-06-22T09:13:01;10.90;;;10.00;;
817;SDS011;391;51.052;6.954;2023-06-22T09:15:06;11.03;;;10.23;;
817;SDS011;391;51.052;6.954;2023-06-22T09:17:16;10.73;;;9.67;;
817;SDS011;391;51.052;6.954;2023-06-22T09:19:20;11.00;;;10.07;;
817;SDS011;391;51.052;6.954;2023-06-22T09:21:23;11.30;;;10.50;;
817;SDS011;391;51.052;6.954;2023-06-22T09:23:27;10.20;;;9.47;;
817;SDS011;391;51.052;6.954;2023-06-22T09:25:31;10.30;;;9.50;;
817;SDS011;391;51.052;6.954;2023-06-22T09:27:34;9.33;;;8.63;;
817;SDS011;391;51.052;6.954;2023-06-22T09:29:38;9.80;;;8.90;;
817;SDS011;391;51.052;6.954;2023-06-22T09:31:43;9.97;;;9.17;;
817;SDS011;391;51.052;6.954;2023-06-22T09:33:46;9.87;;;9.07;;
817;SDS011;391;51.052;6.954;2023-06-22T09:35:50;8.70;;;8.10;;
817;SDS011;391;51.052;6.954;2023-06-22T09:37:53;8.80;;;8.00;;
817;SDS011;391;51.052;6.954;2023-06-22T09:39:58;9.07;;;8.37;;
817;SDS011;391;51.052;6.954;2023-06-22T09:42:02;8.90;;;8.00;;
817;SDS011;391;51.052;6.954;2023-06-22T09:44:07;9.10;;;8.40;;
817;SDS011;391;51.052;6.954;2023-06-22T09:46:10;8.83;;;8.07;;
817;SDS011;391;51.052;6.954;2023-06-22T09:48:15;9.50;;;8.80;;
817;SDS011;391;51.052;6.954;2023-06-22T09:50:19;8.80;;;8.10;;
817;SDS011;391;51.052;6.954;2023-06-22T09:52:22;9.83;;;9.13;;
817;SDS011;391;51.052;6.954;2023-06-22T09:54:35;8.77;;;8.17;;
817;SDS011;391;51.052;6.954;2023-06-22T09:56:40;8.93;;;8.13;;
817;SDS011;391;51.052;6.954;2023-06-22T09:58:44;8.63;;;8.03;;
817;SDS011;391;51.052;6.954;2023-06-22T10:00:49;8.83;;;8.23;;
817;SDS011;391;51.052;6.954;2023-06-22T10:02:52;9.20;;;8.40;;
817;SDS011;391;51.052;6.954;2023-06-22T10:05:03;8.83;;;8.23;;
817;SDS011;391;51.052;6.954;2023-06-22T10:07:07;9.60;;;8.90;;
817;SDS011;391;51.052;6.954;2023-06-22T10:09:11;10.37;;;9.47;;
817;SDS011;391;51.052;6.954;2023-06-22T10:11:14;9.23;;;8.53;;
817;SDS011;391;51.052;6.954;2023-06-22T10:13:17;9.40;;;8.60;;
817;SDS011;391;51.052;6.954;2023-06-22T10:15:21;9.70;;;9.00;;
817;SDS011;391;51.052;6.954;2023-06-22T10:17:24;9.20;;;8.43;;
817;SDS011;391;51.052;6.954;2023-06-22T10:19:28;8.70;;;8.00;;
817;SDS011;391;51.052;6.954;2023-06-22T10:21:33;9.03;;;8.43;;
817;SDS011;391;51.052;6.954;2023-06-22T10:23:36;8.87;;;8.17;;
817;SDS011;391;51.052;6.954;2023-06-22T10:25:40;9.80;;;9.00;;
817;SDS011;391;51.052;6.954;2023-06-22T10:27:44;9.67;;;8.97;;
817;SDS011;391;51.052;6.954;2023-06-22T10:29:47;9.17;;;8.47;;
817;SDS011;391;51.052;6.954;2023-06-22T10:31:51;10.67;;;9.53;;
817;SDS011;391;51.052;6.954;2023-06-22T10:33:54;15.03;;;10.43;;
817;SDS011;391;51.052;6.954;2023-06-22T10:35:58;13.33;;;10.23;;
817;SDS011;391;51.052;6.954;2023-06-22T10:38:03;12.10;;;10.40;;
817;SDS011;391;51.052;6.954;2023-06-22T10:40:08;11.73;;;10.63;;
817;SDS011;391;51.052;6.954;2023-06-22T10:42:12;11.57;;;10.57;;
817;SDS011;391;51.052;6.954;2023-06-22T10:44:16;12.80;;;11.60;;
817;SDS011;391;51.052;6.954;2023-06-22T10:46:19;11.97;;;10.87;;
817;SDS011;391;51.052;6.954;2023-06-22T10:48:23;12.67;;;11.50;;
817;SDS011;391;51.052;6.954;2023-06-22T10:50:26;12.43;;;11.13;;
817;SDS011;391;51.052;6.954;2023-06-22T10:52:30;13.47;;;12.30;;
817;SDS011;391;51.052;6.954;2023-06-22T10:54:35;12.30;;;11.20;;
817;SDS011;391;51.052;6.954;2023-06-22T10:56:41;13.27;;;12.27;;
817;SDS011;391;51.052;6.954;2023-06-22T10:58:44;13.87;;;12.57;;
817;SDS011;391;51.052;6.954;2023-06-22T11:00:49;15.23;;;13.70;;
817;SDS011;391;51.052;6.954;2023-06-22T11:02:52;13.97;;;12.97;;
817;SDS011;391;51.052;6.954;2023-06-22T11:04:56;13.37;;;12.27;;
817;SDS011;391;51.052;6.954;2023-06-22T11:07:02;14.27;;;13.27;;
817;SDS011;391;51.052;6.954;2023-06-22T11:09:05;17.70;;;16.40;;
817;SDS011;391;51.052;6.954;2023-06-22T11:11:15;17.90;;;16.20;;
817;SDS011;391;51.052;6.954;2023-06-22T11:13:19;16.07;;;14.67;;
817;SDS011;391;51.052;6.954;2023-06-22T11:15:22;16.33;;;15.00;;
817;SDS011;391;51.052;6.954;2023-06-22T11:17:26;16.50;;;15.10;;
817;SDS011;391;51.052;6.954;2023-06-22T11:19:30;18.03;;;16.70;;
817;SDS011;391;51.052;6.954;2023-06-22T11:21:33;16.87;;;15.47;;
817;SDS011;391;51.052;6.954;2023-06-22T11:23:36;18.13;;;16.50;;
817;SDS011;391;51.052;6.954;2023-06-22T11:25:40;18.30;;;16.90;;
817;SDS011;391;51.052;6.954;2023-06-22T11:27:45;19.03;;;17.23;;
817;SDS011;391;51.052;6.954;2023-06-22T11:29:49;19.23;;;17.33;;
817;SDS011;391;51.052;6.954;2023-06-22T11:31:55;19.13;;;17.60;;
817;SDS011;391;51.052;6.954;2023-06-22T11:33:58;19.63;;;17.70;;
817;SDS011;391;51.052;6.954;2023-06-22T11:36:01;20.53;;;18.53;;
817;SDS011;391;51.052;6.954;2023-06-22T11:38:05;18.50;;;17.00;;
817;SDS011;391;51.052;6.954;2023-06-22T11:40:10;20.87;;;19.27;;
817;SDS011;391;51.052;6.954;2023-06-22T11:42:14;18.00;;;16.60;;
817;SDS011;391;51.052;6.954;2023-06-22T11:44:19;21.60;;;19.80;;
817;SDS011;391;51.052;6.954;2023-06-22T11:46:22;18.83;;;17.23;;
817;SDS011;391;51.052;6.954;2023-06-22T11:48:25;19.47;;;17.87;;
817;SDS011;391;51.052;6.954;2023-06-22T11:50:29;19.73;;;18.10;;
817;SDS011;391;51.052;6.954;2023-06-22T11:52:36;20.30;;;18.57;;
817;SDS011;391;51.052;6.954;2023-06-22T11:54:39;19.03;;;17.57;;
817;SDS011;391;51.052;6.954;2023-06-22T11:56:43;18.47;;;16.97;;
817;SDS011;391;51.052;6.954;2023-06-22T11:58:46;18.77;;;17.27;;
817;SDS011;391;51.052;6.954;2023-06-22T12:00:51;21.30;;;19.30;;
817;SDS011;391;51.052;6.954;2023-06-22T12:02:55;22.37;;;20.43;;
817;SDS011;391;51.052;6.954;2023-06-22T12:05:02;25.07;;;22.87;;
817;SDS011;391;51.052;6.954;2023-06-22T12:07:06;22.87;;;20.47;;
817;SDS011;391;51.052;6.954;2023-06-22T12:09:10;21.50;;;19.90;;
817;SDS011;391;51.052;6.954;2023-06-22T12:11:15;22.57;;;20.73;;
817;SDS011;391;51.052;6.954;2023-06-22T12:13:19;25.53;;;23.30;;
817;SDS011;391;51.052;6.954;2023-06-22T12:15:22;26.50;;;24.27;;
817;SDS011;391;51.052;6.954;2023-06-22T12:17:28;26.63;;;24.20;;
817;SDS011;391;51.052;6.954;2023-06-22T12:19:31;23.07;;;21.17;;
817;SDS011;391;51.052;6.954;2023-06-22T12:21:34;20.50;;;19.00;;
817;SDS011;391;51.052;6.954;2023-06-22T12:23:38;21.73;;;19.90;;
817;SDS011;391;51.052;6.954;2023-06-22T12:25:41;19.63;;;18.13;;
817;SDS011;391;51.052;6.954;2023-06-22T12:27:45;14.77;;;13.77;;
817;SDS011;391;51.052;6.954;2023-06-22T12:29:48;14.13;;;13.03;;
817;SDS011;391;51.052;6.954;2023-06-22T12:31:52;12.03;;;11.03;;
817;SDS011;391;51.052;6.954;2023-06-22T12:33:57;11.93;;;11.00;;
817;SDS011;391;51.052;6.954;2023-06-22T12:36:00;11.60;;;10.77;;
817;SDS011;391;51.052;6.954;2023-06-22T12:38:05;10.27;;;9.57;;
817;SDS011;391;51.052;6.954;2023-06-22T12:40:10;12.03;;;11.13;;
817;SDS011;391;51.052;6.954;2023-06-22T12:42:14;12.80;;;11.80;;
817;SDS011;391;51.052;6.954;2023-06-22T12:44:18;10.63;;;9.93;;
817;SDS011;391;51.052;6.954;2023-06-22T12:46:21;11.43;;;10.53;;
817;SDS011;391;51.052;6.954;2023-06-22T12:48:25;11.73;;;10.83;;
817;SDS011;391;51.052;6.954;2023-06-22T12:50:30;10.33;;;9.53;;
817;SDS011;391;51.052;6.954;2023-06-22T12:52:36;11.93;;;10.93;;
817;SDS011;391;51.052;6.954;2023-06-22T12:54:40;11.60;;;10.53;;
817;SDS011;391;51.052;6.954;2023-06-22T12:56:56;11.77;;;10.80;;
817;SDS011;391;51.052;6.954;2023-06-22T12:59:00;12.00;;;11.13;;
817;SDS011;391;51.052;6.954;2023-06-22T13:01:04;11.93;;;11.03;;
817;SDS011;391;51.052;6.954;2023-06-22T13:03:07;11.73;;;10.83;;
817;SDS011;391;51.052;6.954;2023-06-22T13:05:11;12.73;;;11.73;;
817;SDS011;391;51.052;6.954;2023-06-22T13:07:16;10.50;;;9.60;;
817;SDS011;391;51.052;6.954;2023-06-22T13:09:24;11.10;;;10.30;;
817;SDS011;391;51.052;6.954;2023-06-22T13:11:27;10.87;;;9.97;;